Time;durP1;ratioP1;P1;durP2;ratioP2;P2;SDS_P1;SDS_P2;PMS_P1;PMS_P2;Temp;Humidity;BMP_temperature;BMP_pressure;BME280_temperature;BME280_humidity;BME280_pressure;Samples;Min_cycle;Max_cycle;Signal;HPM_P1;HPM_P2
2022/03/02 00:01:09;;;;;;;1999.90;999.90;;;13.70;55.90;;;;;;5012950;28;20064;-78
2022/03/02 00:03:36;;;;;;;1999.90;999.90;;;13.70;55.90;;;;;;5012645;28;20057;-78
2022/03/02 00:06:02;;;;;;;1999.90;999.90;;;13.60;55.90;;;;;;5027541;28;20042;-78
2022/03/02 00:08:28;;;;;;;1999.90;999.90;;;13.60;55.90;;;;;;4994340;28;20034;-78
2022/03/02 00:10:54;;;;;;;1999.90;999.90;;;13.60;55.90;;;;;;5014261;28;20033;-78
2022/03/02 00:13:20;;;;;;;1999.90;999.90;;;13.50;55.90;;;;;;5029234;28;20387;-78
2022/03/02 00:15:48;;;;;;;1999.90;999.90;;;13.50;55.90;;;;;;5033167;28;20034;-78
2022/03/02 00:18:14;;;;;;;1999.90;999.90;;;13.50;56.00;;;;;;5012229;28;20034;-79
2022/03/02 00:20:40;;;;;;;1999.90;999.90;;;13.40;55.90;;;;;;5011036;28;20038;-78
2022/03/02 00:23:06;;;;;;;1999.90;999.90;;;13.40;55.90;;;;;;5044627;28;20501;-78
2022/03/02 00:25:33;;;;;;;1999.90;999.90;;;13.40;55.90;;;;;;5008765;28;20985;-78
2022/03/02 00:27:59;;;;;;;1999.90;999.90;;;13.40;55.90;;;;;;4993774;28;20383;-78
2022/03/02 00:30:28;;;;;;;1999.90;999.90;;;13.40;55.80;;;;;;4991256;28;20042;-78
2022/03/02 00:32:55;;;;;;;1999.90;999.90;;;13.40;55.80;;;;;;4991116;28;20308;-78
2022/03/02 00:35:21;;;;;;;1999.90;999.90;;;13.40;55.80;;;;;;5044676;28;20037;-78
2022/03/02 00:37:47;;;;;;;1999.90;999.90;;;13.40;55.80;;;;;;4993437;28;20038;-78
2022/03/02 00:40:14;;;;;;;1999.90;999.90;;;13.40;55.80;;;;;;5011793;28;20049;-78
2022/03/02 00:42:40;;;;;;;1999.90;999.90;;;13.40;55.80;;;;;;5009981;28;20089;-78
2022/03/02 00:45:06;;;;;;;1999.90;999.90;;;13.40;55.80;;;;;;4994402;28;20470;-77
2022/03/02 00:47:32;;;;;;;1999.90;999.90;;;13.40;55.80;;;;;;5042291;28;20034;-78
2022/03/02 00:49:59;;;;;;;1999.90;999.90;;;13.40;56.40;;;;;;5012881;28;20034;-78
2022/03/02 00:52:25;;;;;;;1999.90;999.90;;;13.40;55.80;;;;;;5010529;28;20068;-78
2022/03/02 00:54:51;;;;;;;1999.90;999.90;;;13.30;55.80;;;;;;5010596;28;20034;-77
2022/03/02 00:57:17;;;;;;;1999.90;999.90;;;13.30;55.80;;;;;;5023499;28;20041;-78
2022/03/02 00:59:43;;;;;;;1999.90;999.90;;;13.30;55.80;;;;;;5025752;28;20407;-78
2022/03/02 01:02:09;;;;;;;1999.90;999.90;;;13.20;55.80;;;;;;5040995;28;20064;-78
2022/03/02 01:04:35;;;;;;;1999.90;999.90;;;13.20;55.80;;;;;;5010088;28;20030;-78
2022/03/02 01:07:02;;;;;;;1999.90;999.90;;;13.20;55.90;;;;;;5025919;28;20487;-78
2022/03/02 01:09:28;;;;;;;1999.90;999.90;;;13.20;55.90;;;;;;5009454;28;20041;-78
2022/03/02 01:11:54;;;;;;;1999.90;999.90;;;13.10;55.90;;;;;;5012337;28;20026;-78
2022/03/02 01:14:20;;;;;;;1999.90;999.90;;;13.10;55.90;;;;;;5009707;28;20053;-78
2022/03/02 01:16:46;;;;;;;1999.90;999.90;;;13.10;55.90;;;;;;4990735;28;20037;-78
2022/03/02 01:19:12;;;;;;;1999.90;999.90;;;13.10;56.00;;;;;;5025948;28;20057;-78
2022/03/02 01:21:38;;;;;;;1999.90;999.90;;;13.00;55.90;;;;;;5011524;28;20041;-78
2022/03/02 01:24:05;;;;;;;1999.90;999.90;;;13.00;55.90;;;;;;4962573;28;1338305;-78
2022/03/02 01:26:31;;;;;;;1999.90;999.90;;;13.10;56.00;;;;;;5011707;28;20049;-78
2022/03/02 01:28:57;;;;;;;1999.90;999.90;;;13.00;55.90;;;;;;5012241;28;20021;-78
2022/03/02 01:31:24;;;;;;;1999.90;999.90;;;13.00;55.90;;;;;;5013102;28;20037;-78
2022/03/02 01:33:51;;;;;;;1999.90;999.90;;;13.00;56.00;;;;;;4992018;28;20046;-78
2022/03/02 01:36:20;;;;;;;1999.90;999.90;;;13.00;56.00;;;;;;5011296;28;20386;-78
2022/03/02 01:38:46;;;;;;;1999.90;999.90;;;13.00;56.00;;;;;;5018458;28;20029;-78
2022/03/02 01:41:14;;;;;;;1999.90;999.90;;;13.00;56.00;;;;;;5008383;28;20057;-78
2022/03/02 01:43:41;;;;;;;1999.90;999.90;;;12.90;56.00;;;;;;5025862;28;20025;-78
2022/03/02 01:46:07;;;;;;;1999.90;999.90;;;12.90;56.10;;;;;;5026860;28;20045;-78
2022/03/02 01:48:33;;;;;;;1999.90;999.90;;;12.80;56.10;;;;;;5010937;28;20030;-78
2022/03/02 01:50:59;;;;;;;1999.90;999.90;;;12.80;56.20;;;;;;5012196;28;20033;-78
2022/03/02 01:53:25;;;;;;;1999.90;999.90;;;12.70;56.30;;;;;;5008490;28;20037;-78
2022/03/02 01:55:51;;;;;;;1999.90;999.90;;;12.70;56.30;;;;;;4994902;28;20034;-78
2022/03/02 01:58:17;;;;;;;1999.90;999.90;;;12.70;56.30;;;;;;5011066;28;20471;-78
2022/03/02 02:00:43;;;;;;;1999.90;999.90;;;12.70;56.30;;;;;;5011100;28;20042;-78
2022/03/02 02:03:09;;;;;;;1999.90;999.90;;;12.70;56.30;;;;;;5023752;28;20038;-78
2022/03/02 02:05:36;;;;;;;1999.90;999.90;;;12.70;56.40;;;;;;4994939;28;20038;-78
2022/03/02 02:08:02;;;;;;;1999.90;999.90;;;12.70;56.40;;;;;;5022493;28;20041;-78
2022/03/02 02:10:28;;;;;;;1999.90;999.90;;;12.60;56.40;;;;;;5026346;28;20045;-78
2022/03/02 02:12:54;;;;;;;1999.90;999.90;;;12.60;56.40;;;;;;5022440;28;20060;-78
2022/03/02 02:15:21;;;;;;;1999.90;999.90;;;12.60;56.50;;;;;;5025301;28;20068;-77
2022/03/02 02:17:47;;;;;;;1999.90;999.90;;;12.60;56.50;;;;;;4995492;28;20022;-78
2022/03/02 02:20:13;;;;;;;1999.90;999.90;;;12.50;56.50;;;;;;5005204;28;20049;-77
2022/03/02 02:22:44;;;;;;;1999.90;999.90;;;12.50;56.60;;;;;;4993643;28;20077;-78
2022/03/02 02:25:10;;;;;;;1999.90;999.90;;;12.40;56.60;;;;;;5026407;28;20395;-78
2022/03/02 02:27:36;;;;;;;1999.90;999.90;;;12.40;56.70;;;;;;4994060;28;20049;-78
2022/03/02 02:30:03;;;;;;;1999.90;999.90;;;12.40;56.80;;;;;;5041371;28;20041;-78
2022/03/02 02:32:29;;;;;;;1999.90;999.90;;;12.40;56.80;;;;;;5042461;28;20033;-78
2022/03/02 02:34:57;;;;;;;1999.90;999.90;;;12.30;56.90;;;;;;5009381;28;20045;-78
2022/03/02 02:37:25;;;;;;;1999.90;999.90;;;12.30;56.90;;;;;;5026591;28;20029;-78
2022/03/02 02:39:59;;;;;;;1999.90;999.90;;;12.30;57.00;;;;;;5010448;28;20042;-78
2022/03/02 02:42:25;;;;;;;1999.90;999.90;;;12.30;57.00;;;;;;4990717;28;20487;-78
2022/03/02 02:44:52;;;;;;;1999.90;999.90;;;12.30;57.00;;;;;;4990086;28;20036;-77
2022/03/02 02:47:18;;;;;;;1999.90;999.90;;;12.30;57.00;;;;;;5008201;28;20041;-78
2022/03/02 02:49:44;;;;;;;1999.90;999.90;;;12.30;57.00;;;;;;5009878;28;20041;-78
2022/03/02 02:52:10;;;;;;;1999.90;999.90;;;12.20;57.00;;;;;;5009894;28;20391;-78
2022/03/02 02:54:36;;;;;;;1999.90;999.90;;;12.20;57.00;;;;;;5010579;28;20049;-78
2022/03/02 02:57:04;;;;;;;1999.90;999.90;;;12.20;57.10;;;;;;5008333;28;20041;-78
2022/03/02 02:59:31;;;;;;;1999.90;999.90;;;12.20;57.20;;;;;;5009409;28;20038;-78
2022/03/02 03:01:57;;;;;;;1999.90;999.90;;;12.20;57.20;;;;;;5006712;28;20034;-78
2022/03/02 03:04:23;;;;;;;1999.90;999.90;;;12.20;57.30;;;;;;4970644;28;20608;-78
2022/03/02 03:06:49;;;;;;;1999.90;999.90;;;12.10;57.20;;;;;;4988219;28;20049;-78
2022/03/02 03:09:18;;;;;;;1999.90;999.90;;;12.20;57.30;;;;;;4988374;28;20037;-78
2022/03/02 03:11:44;;;;;;;1999.90;999.90;;;12.10;57.20;;;;;;5008894;28;20041;-78
2022/03/02 03:14:11;;;;;;;1999.90;999.90;;;12.20;57.30;;;;;;5039938;28;20046;-77
2022/03/02 03:16:37;;;;;;;1999.90;999.90;;;12.20;57.20;;;;;;5030985;28;20026;-78
2022/03/02 03:19:03;;;;;;;1999.90;999.90;;;12.20;57.20;;;;;;5008195;28;20471;-78
2022/03/02 03:21:29;;;;;;;1999.90;999.90;;;12.20;57.20;;;;;;5008570;28;20377;-78
2022/03/02 03:23:56;;;;;;;1999.90;999.90;;;12.20;57.80;;;;;;5013226;28;20041;-78
2022/03/02 03:26:22;;;;;;;1999.90;999.90;;;12.20;57.20;;;;;;5003944;28;20060;-78
2022/03/02 03:28:48;;;;;;;1999.90;999.90;;;12.10;57.30;;;;;;5002162;28;20026;-78
2022/03/02 03:31:14;;;;;;;1999.90;999.90;;;12.10;57.40;;;;;;5007294;28;20034;-78
2022/03/02 03:33:40;;;;;;;1999.90;999.90;;;12.00;57.40;;;;;;5008841;28;20026;-78
2022/03/02 03:36:06;;;;;;;1999.90;999.90;;;12.00;57.50;;;;;;5007284;28;20034;-79
2022/03/02 03:38:32;;;;;;;1999.90;999.90;;;12.00;58.20;;;;;;4991431;28;20434;-79
2022/03/02 03:40:59;;;;;;;1999.90;999.90;;;12.00;57.60;;;;;;5011175;28;20483;-79
2022/03/02 03:43:25;;;;;;;1999.90;999.90;;;12.00;57.60;;;;;;5011173;28;20078;-79
2022/03/02 03:45:51;;;;;;;1999.90;999.90;;;12.00;57.60;;;;;;5026316;28;20037;-79
2022/03/02 03:48:17;;;;;;;1999.90;999.90;;;12.00;57.50;;;;;;5019360;28;20026;-79
2022/03/02 03:50:44;;;;;;;1999.90;999.90;;;12.00;57.50;;;;;;5011230;28;20379;-78
2022/03/02 03:53:11;;;;;;;1999.90;999.90;;;12.00;57.50;;;;;;4992823;28;20049;-79
2022/03/02 03:55:40;;;;;;;1999.90;999.90;;;12.00;57.50;;;;;;5011094;28;20026;-80
2022/03/02 03:58:06;;;;;;;1999.90;999.90;;;12.00;57.50;;;;;;5042193;28;20034;-80
2022/03/02 04:00:33;;;;;;;1999.90;999.90;;;11.90;57.50;;;;;;5009580;28;20030;-80
2022/03/02 04:02:59;;;;;;;1999.90;999.90;;;11.90;57.60;;;;;;4993020;28;20046;-79
2022/03/02 04:05:25;;;;;;;1999.90;999.90;;;11.90;57.70;;;;;;4993092;28;20044;-80
2022/03/02 04:07:51;;;;;;;1999.90;999.90;;;11.90;57.70;;;;;;4990346;28;20037;-80
2022/03/02 04:10:17;;;;;;;1999.90;999.90;;;11.90;57.80;;;;;;5042692;28;20487;-80
2022/03/02 04:12:44;;;;;;;1999.90;999.90;;;11.80;57.70;;;;;;5009855;28;20030;-79
2022/03/02 04:15:10;;;;;;;1999.90;999.90;;;11.80;57.70;;;;;;4990424;28;20386;-79
2022/03/02 04:17:37;;;;;;;1999.90;999.90;;;11.80;57.80;;;;;;5011928;28;20037;-80
2022/03/02 04:20:04;;;;;;;1999.90;999.90;;;11.80;57.80;;;;;;5007713;28;20030;-80
2022/03/02 04:22:30;;;;;;;1999.90;999.90;;;11.80;57.90;;;;;;5028286;28;20507;-81
2022/03/02 04:24:56;;;;;;;1999.90;999.90;;;11.70;57.90;;;;;;5014006;28;20033;-81
2022/03/02 04:27:23;;;;;;;1999.90;999.90;;;11.70;58.00;;;;;;5011991;28;20418;-79
2022/03/02 04:29:49;;;;;;;1999.90;999.90;;;11.70;58.00;;;;;;5010607;28;20105;-80
2022/03/02 04:32:15;;;;;;;1999.90;999.90;;;11.70;57.90;;;;;;4994396;28;20053;-79
2022/03/02 04:34:41;;;;;;;1999.90;999.90;;;11.70;57.90;;;;;;5013081;28;20375;-79
2022/03/02 04:37:07;;;;;;;1999.90;999.90;;;11.70;57.90;;;;;;5013220;28;20493;-79
2022/03/02 04:39:33;;;;;;;1999.90;999.90;;;11.70;57.80;;;;;;5013421;28;20033;-79
2022/03/02 04:41:59;;;;;;;1999.90;999.90;;;11.70;57.80;;;;;;5012421;28;20033;-79
2022/03/02 04:44:25;;;;;;;1999.90;999.90;;;11.70;57.90;;;;;;5013284;28;20037;-79
2022/03/02 04:46:51;;;;;;;1999.90;999.90;;;11.70;57.90;;;;;;5012762;28;20030;-79
2022/03/02 04:49:18;;;;;;;1999.90;999.90;;;11.70;58.00;;;;;;5022562;28;20026;-80
2022/03/02 04:51:45;;;;;;;1999.90;999.90;;;11.60;58.10;;;;;;5024252;28;20407;-78
2022/03/02 04:55:05;;;;;;;1999.90;999.90;;;11.60;58.10;;;;;;5037650;28;20387;-78
2022/03/02 04:56:59;;;;;;;1999.90;999.90;;;11.60;58.20;;;;;;5017393;28;20037;-77
2022/03/02 04:59:26;;;;;;;1999.90;999.90;;;11.50;58.20;;;;;;5022696;28;20038;-78
2022/03/02 05:01:52;;;;;;;1999.90;999.90;;;11.50;58.20;;;;;;5029584;28;20043;-78
2022/03/02 05:04:18;;;;;;;1999.90;999.90;;;11.50;58.20;;;;;;5012172;28;20026;-78
2022/03/02 05:06:44;;;;;;;1999.90;999.90;;;11.50;58.20;;;;;;5013123;28;20037;-78
2022/03/02 05:09:10;;;;;;;1999.90;999.90;;;11.50;58.20;;;;;;5009625;28;20049;-78
2022/03/02 05:11:36;;;;;;;1999.90;999.90;;;11.50;58.10;;;;;;5012403;28;20026;-78
2022/03/02 05:14:02;;;;;;;1999.90;999.90;;;11.60;58.10;;;;;;5012291;28;20395;-78
2022/03/02 05:16:28;;;;;;;1999.90;999.90;;;11.50;58.20;;;;;;5013244;28;20038;-78
2022/03/02 05:18:54;;;;;;;1999.90;999.90;;;11.50;58.20;;;;;;5045871;28;20052;-77
2022/03/02 05:21:20;;;;;;;1999.90;999.90;;;11.40;58.30;;;;;;4991208;28;20522;-78
2022/03/02 05:23:47;;;;;;;1999.90;999.90;;;11.40;58.30;;;;;;5019726;28;20037;-77
2022/03/02 05:26:13;;;;;;;1999.90;999.90;;;11.40;58.30;;;;;;5011776;28;20053;-78
2022/03/02 05:28:39;;;;;;;1999.90;999.90;;;11.40;58.40;;;;;;5026757;28;20034;-78
2022/03/02 05:31:05;;;;;;;1999.90;999.90;;;11.30;58.40;;;;;;5011970;28;20520;-78
2022/03/02 05:33:31;;;;;;;1999.90;999.90;;;11.30;58.50;;;;;;5010785;28;20030;-77
2022/03/02 05:35:57;;;;;;;1999.90;999.90;;;11.30;58.60;;;;;;4997544;28;20399;-78
2022/03/02 05:38:23;;;;;;;1999.90;999.90;;;11.20;58.50;;;;;;5010076;28;20041;-78
2022/03/02 05:40:50;;;;;;;1999.90;999.90;;;11.30;58.60;;;;;;5009317;28;20035;-78
2022/03/02 05:43:16;;;;;;;1999.90;999.90;;;11.20;58.60;;;;;;5012935;28;20025;-78
2022/03/02 05:45:42;;;;;;;1999.90;999.90;;;11.20;58.60;;;;;;5011689;28;20029;-78
2022/03/02 05:48:09;;;;;;;1999.90;999.90;;;11.20;58.60;;;;;;5009085;28;20478;-78
2022/03/02 05:50:35;;;;;;;1999.90;999.90;;;11.20;58.50;;;;;;4993364;28;20041;-78
2022/03/02 05:53:01;;;;;;;1999.90;999.90;;;11.20;58.50;;;;;;5022981;28;20034;-78
2022/03/02 05:55:27;;;;;;;1999.90;999.90;;;11.20;58.50;;;;;;5011139;28;20364;-78
2022/03/02 05:57:53;;;;;;;1999.90;999.90;;;11.30;58.60;;;;;;5013443;28;20028;-78
2022/03/02 06:00:19;;;;;;;1999.90;999.90;;;11.30;58.50;;;;;;5008794;28;20049;-78
2022/03/02 06:02:46;;;;;;;1999.90;999.90;;;11.20;58.50;;;;;;5012400;28;20041;-78
2022/03/02 06:05:12;;;;;;;1999.90;999.90;;;11.20;58.50;;;;;;5011575;28;20057;-78
2022/03/02 06:07:38;;;;;;;1999.90;999.90;;;11.20;58.50;;;;;;5009887;28;20026;-78
2022/03/02 06:10:05;;;;;;;1999.90;999.90;;;11.20;58.50;;;;;;5012390;28;20045;-78
2022/03/02 06:12:31;;;;;;;1999.90;999.90;;;11.20;58.50;;;;;;4994117;28;20052;-78
2022/03/02 06:14:58;;;;;;;1999.90;999.90;;;11.20;58.50;;;;;;5008478;28;20022;-78
2022/03/02 06:17:24;;;;;;;1999.90;999.90;;;11.20;58.60;;;;;;5008231;28;20487;-79
2022/03/02 06:19:50;;;;;;;1999.90;999.90;;;11.10;58.60;;;;;;5011329;28;20041;-79
2022/03/02 06:22:17;;;;;;;1999.90;999.90;;;11.10;58.80;;;;;;5010498;28;20041;-79
2022/03/02 06:24:43;;;;;;;1999.90;999.90;;;11.00;58.70;;;;;;4995041;28;20048;-79
2022/03/02 06:27:10;;;;;;;1999.90;999.90;;;11.00;58.80;;;;;;5026311;28;20037;-79
2022/03/02 06:29:36;;;;;;;1999.90;999.90;;;11.00;58.80;;;;;;5008363;28;20030;-78
2022/03/02 06:32:02;;;;;;;1999.90;999.90;;;11.00;58.80;;;;;;5011063;28;20038;-78
2022/03/02 06:34:29;;;;;;;1999.90;999.90;;;11.00;58.90;;;;;;5010683;28;20034;-79
2022/03/02 06:36:55;;;;;;;1999.90;999.90;;;11.00;58.90;;;;;;5042451;28;20042;-79
2022/03/02 06:39:22;;;;;;;1999.90;999.90;;;10.90;58.90;;;;;;5010825;28;20037;-80
2022/03/02 06:42:11;;;;;;;1999.90;999.90;;;10.90;59.00;;;;;;5007007;28;20037;-79
2022/03/02 06:44:57;;;;;;;1999.90;999.90;;;10.80;59.10;;;;;;4996285;28;20030;-79
2022/03/02 06:47:27;;;;;;;1999.90;999.90;;;10.80;59.00;;;;;;5006749;28;20034;-80
2022/03/02 06:50:10;;;;;;;1999.90;999.90;;;10.80;59.00;;;;;;4993552;28;20471;-80
2022/03/02 06:52:37;;;;;;;1999.90;999.90;;;10.80;59.00;;;;;;4995588;28;20038;-81
2022/03/02 06:55:09;;;;;;;1999.90;999.90;;;10.80;59.00;;;;;;5026327;28;20034;-80
2022/03/02 06:57:35;;;;;;;1999.90;999.90;;;10.80;59.00;;;;;;5009305;28;20045;-78
2022/03/02 07:00:23;;;;;;;1999.90;999.90;;;10.80;59.00;;;;;;5007438;28;20061;-80
2022/03/02 07:02:52;;;;;;;1999.90;999.90;;;10.80;59.00;;;;;;5023945;28;20395;-80
2022/03/02 07:05:19;;;;;;;1999.90;999.90;;;10.80;58.90;;;;;;5000768;28;20050;-80
2022/03/02 07:07:46;;;;;;;1999.90;999.90;;;10.80;59.00;;;;;;5007894;28;20033;-79
2022/03/02 07:10:12;;;;;;;1999.90;999.90;;;10.90;59.00;;;;;;5042208;28;20033;-78
2022/03/02 07:12:38;;;;;;;1999.90;999.90;;;10.90;58.90;;;;;;5010530;28;20442;-78
2022/03/02 07:15:05;;;;;;;1999.90;999.90;;;10.90;58.90;;;;;;5007403;28;20038;-81
2022/03/02 07:17:32;;;;;;;1999.90;999.90;;;10.90;58.90;;;;;;5042712;28;20030;-81
2022/03/02 07:20:02;;;;;;;1999.90;999.90;;;10.90;58.90;;;;;;4991103;28;20030;-81
2022/03/02 07:22:36;;;;;;;1999.90;999.90;;;10.90;58.90;;;;;;5026368;28;20045;-81
2022/03/02 07:25:23;;;;;;;1999.90;999.90;;;10.90;58.90;;;;;;5011376;28;20033;-80
2022/03/02 07:27:50;;;;;;;1999.90;999.90;;;10.90;58.90;;;;;;5023196;28;20042;-80
2022/03/02 07:30:16;;;;;;;1999.90;999.90;;;10.90;58.90;;;;;;5009854;28;20487;-80
2022/03/02 07:32:45;;;;;;;1999.90;999.90;;;10.90;58.90;;;;;;5043832;28;20030;-80
2022/03/02 07:35:11;;;;;;;1999.90;999.90;;;10.90;59.00;;;;;;5007145;28;20034;-79
2022/03/02 07:37:38;;;;;;;1999.90;999.90;;;10.80;59.00;;;;;;5043143;28;20483;-78
2022/03/02 07:40:05;;;;;;;1999.90;999.90;;;10.80;59.10;;;;;;5027293;28;20076;-80
2022/03/02 07:42:32;;;;;;;1999.90;999.90;;;10.80;59.10;;;;;;4992766;28;20045;-81
2022/03/02 07:44:58;;;;;;;1999.90;999.90;;;10.80;59.10;;;;;;5025620;28;20030;-81
2022/03/02 07:47:24;;;;;;;1999.90;999.90;;;10.80;59.10;;;;;;4992314;28;20041;-82
2022/03/02 07:49:51;;;;;;;1999.90;999.90;;;10.80;59.10;;;;;;5023875;28;20098;-83
2022/03/02 07:52:17;;;;;;;1999.90;999.90;;;10.80;59.10;;;;;;5010852;28;20041;-83
2022/03/02 07:54:44;;;;;;;1999.90;999.90;;;10.90;59.10;;;;;;5029876;28;20038;-80
2022/03/02 07:57:12;;;;;;;1999.90;999.90;;;10.90;59.00;;;;;;4995990;28;20497;-80
2022/03/02 07:59:42;;;;;;;1999.90;999.90;;;11.00;59.00;;;;;;4997593;28;20038;-80
2022/03/02 08:02:10;;;;;;;1999.90;999.90;;;11.00;59.00;;;;;;5012183;28;20053;-80
2022/03/02 08:04:36;;;;;;;1999.90;999.90;;;11.00;59.00;;;;;;4994058;28;20033;-81
2022/03/02 08:07:03;;;;;;;1999.90;999.90;;;11.00;59.00;;;;;;5013634;28;20169;-79
2022/03/02 08:09:31;;;;;;;1999.90;999.90;;;11.00;59.00;;;;;;4993523;28;20037;-82
2022/03/02 08:11:58;;;;;;;1999.90;999.90;;;11.00;59.00;;;;;;5042167;28;20029;-82
2022/03/02 08:14:25;;;;;;;1999.90;999.90;;;11.00;58.90;;;;;;5047136;28;20026;-82
2022/03/02 08:16:51;;;;;;;1999.90;999.90;;;11.10;58.90;;;;;;4995942;28;20479;-82
2022/03/02 08:19:18;;;;;;;1999.90;999.90;;;11.10;58.90;;;;;;5015222;28;20494;-82
2022/03/02 08:21:45;;;;;;;1999.90;999.90;;;11.10;59.00;;;;;;5012495;28;20046;-82
2022/03/02 08:24:12;;;;;;;1999.90;999.90;;;11.10;59.00;;;;;;4997961;28;20529;-80
2022/03/02 08:26:39;;;;;;;1999.90;999.90;;;11.10;58.90;;;;;;4993715;28;20029;-80
2022/03/02 08:29:13;;;;;;;1999.90;999.90;;;11.10;58.90;;;;;;5027299;28;20403;-80
2022/03/02 08:31:41;;;;;;;1999.90;999.90;;;11.20;58.90;;;;;;5013805;28;20034;-80
2022/03/02 08:34:07;;;;;;;1999.90;999.90;;;11.20;58.90;;;;;;5012402;28;20475;-84
2022/03/02 08:36:34;;;;;;;1999.90;999.90;;;11.30;59.50;;;;;;5013504;28;20382;-82
2022/03/02 08:39:10;;;;;;;1999.90;999.90;;;11.30;58.90;;;;;;5027702;28;20467;-81
2022/03/02 08:41:36;;;;;;;1999.90;999.90;;;11.50;58.90;;;;;;5012578;28;20405;-80
2022/03/02 08:44:03;;;;;;;1999.90;999.90;;;11.50;58.70;;;;;;5012171;28;20498;-80
2022/03/02 08:46:29;;;;;;;1999.90;999.90;;;11.50;58.70;;;;;;5009982;28;20419;-81
2022/03/02 08:48:55;;;;;;;1999.90;999.90;;;11.50;58.80;;;;;;5010134;28;20022;-80
2022/03/02 08:51:22;;;;;;;1999.90;999.90;;;11.50;58.90;;;;;;5011421;28;20032;-83
2022/03/02 08:53:49;;;;;;;1999.90;999.90;;;11.50;58.90;;;;;;5009043;28;20045;-79
2022/03/02 08:56:15;;;;;;;1999.90;999.90;;;11.60;59.00;;;;;;4996117;28;20029;-79
2022/03/02 08:58:41;;;;;;;1999.90;999.90;;;11.70;58.90;;;;;;5009385;28;20061;-79
2022/03/02 09:01:08;;;;;;;1999.90;999.90;;;11.70;58.80;;;;;;5011438;28;20415;-80
2022/03/02 09:03:34;;;;;;;1999.90;999.90;;;11.80;58.80;;;;;;5010540;28;20048;-81
2022/03/02 09:06:02;;;;;;;1999.90;999.90;;;11.90;58.70;;;;;;4992945;28;20042;-83
2022/03/02 09:08:28;;;;;;;1999.90;999.90;;;12.00;58.70;;;;;;5025107;28;20026;-90
2022/03/02 09:10:56;;;;;;;1999.90;999.90;;;12.10;58.60;;;;;;4977938;28;20499;-83
2022/03/02 09:13:22;;;;;;;1999.90;999.90;;;12.20;58.50;;;;;;5012935;28;20026;-88
2022/03/02 09:15:48;;;;;;;1999.90;999.90;;;12.30;58.50;;;;;;5011149;28;20387;-86
2022/03/02 09:18:14;;;;;;;1999.90;999.90;;;12.30;58.50;;;;;;5012656;28;20042;-83
2022/03/02 09:20:41;;;;;;;1999.90;999.90;;;12.40;58.60;;;;;;5023996;28;20029;-81
2022/03/02 09:23:07;;;;;;;1999.90;999.90;;;12.50;58.60;;;;;;4993212;28;20046;-80
2022/03/02 09:25:37;;;;;;;1999.90;999.90;;;12.50;58.40;;;;;;5042472;28;20400;-80
2022/03/02 09:28:03;;;;;;;1999.90;999.90;;;12.60;58.50;;;;;;5008721;28;20319;-80
2022/03/02 09:30:29;;;;;;;1999.90;999.90;;;12.60;58.40;;;;;;5003981;28;20487;-80
2022/03/02 09:32:56;;;;;;;1999.90;999.90;;;12.60;58.40;;;;;;5010520;28;20030;-79
2022/03/02 09:35:22;;;;;;;1999.90;999.90;;;12.70;58.50;;;;;;5010293;28;20443;-79
2022/03/02 09:37:49;;;;;;;1999.90;999.90;;;12.70;58.50;;;;;;5007310;28;20030;-79
2022/03/02 09:40:26;;;;;;;1999.90;999.90;;;12.70;58.50;;;;;;5044097;28;20033;-77
2022/03/02 09:43:02;;;;;;;1999.90;999.90;;;12.80;58.60;;;;;;5011183;28;20052;-80
2022/03/02 09:45:30;;;;;;;1999.90;999.90;;;12.80;58.60;;;;;;4992497;28;20038;-79
2022/03/02 09:48:01;;;;;;;1999.90;999.90;;;12.80;58.60;;;;;;4992957;28;20456;-78
2022/03/02 09:50:31;;;;;;;1999.90;999.90;;;12.80;58.60;;;;;;5016152;28;20042;-80
2022/03/02 09:53:08;;;;;;;1999.90;999.90;;;12.70;58.70;;;;;;5009336;28;20426;-80
2022/03/02 09:55:35;;;;;;;1999.90;999.90;;;12.70;58.90;;;;;;4979399;28;20038;-81
2022/03/02 09:58:01;;;;;;;1999.90;999.90;;;12.70;59.10;;;;;;5012793;28;20519;-78
2022/03/02 10:00:28;;;;;;;1999.90;999.90;;;12.60;59.20;;;;;;5006902;28;20030;-79
2022/03/02 10:02:56;;;;;;;1999.90;999.90;;;12.60;59.20;;;;;;5039665;28;20037;-78
2022/03/02 10:05:24;;;;;;;1999.90;999.90;;;12.60;59.20;;;;;;4986373;28;20030;-80
2022/03/02 10:07:58;;;;;;;1999.90;999.90;;;12.70;59.30;;;;;;4991337;28;20034;-79
2022/03/02 10:10:25;;;;;;;1999.90;999.90;;;12.70;59.30;;;;;;4990885;28;20376;-79
2022/03/02 10:12:52;;;;;;;1999.90;999.90;;;12.80;59.30;;;;;;5007678;28;20026;-78
2022/03/02 10:15:19;;;;;;;1999.90;999.90;;;12.80;59.20;;;;;;5004915;28;20057;-80
2022/03/02 10:17:47;;;;;;;1999.90;999.90;;;12.90;59.20;;;;;;5007559;28;20026;-73
2022/03/02 10:20:15;;;;;;;1999.90;999.90;;;13.00;59.20;;;;;;4992180;28;20038;-74
2022/03/02 10:23:06;;;;;;;1999.90;999.90;;;13.10;59.10;;;;;;4992080;28;20046;-74
2022/03/02 10:25:52;;;;;;;1999.90;999.90;;;13.20;59.00;;;;;;5011408;28;20379;-80
2022/03/02 10:28:30;;;;;;;1999.90;999.90;;;13.30;58.90;;;;;;5007679;28;20049;-80
2022/03/02 10:31:19;;;;;;;1999.90;999.90;;;13.40;58.90;;;;;;4992537;28;20037;-76
2022/03/02 10:33:53;;;;;;;1999.90;999.90;;;13.50;58.90;;;;;;5010053;28;20376;-73
2022/03/02 10:36:20;;;;;;;1999.90;999.90;;;13.60;58.80;;;;;;5008352;28;20037;-81
2022/03/02 10:38:59;;;;;;;1999.90;999.90;;;13.70;58.80;;;;;;5011176;28;20391;-87
2022/03/02 10:41:27;;;;;;;1999.90;999.90;;;13.90;58.70;;;;;;5007061;28;20040;-80
2022/03/02 10:44:09;;;;;;;1999.90;999.90;;;14.00;58.60;;;;;;5009418;28;20033;-86
2022/03/02 10:46:36;;;;;;;1999.90;999.90;;;14.00;58.60;;;;;;5036720;28;20045;-74
2022/03/02 10:49:34;;;;;;;1999.90;999.90;;;14.10;58.60;;;;;;5009300;28;20044;-85
2022/03/02 10:52:00;;;;;;;1999.90;999.90;;;14.20;58.50;;;;;;5002591;28;20049;-79
2022/03/02 10:54:26;;;;;;;1999.90;999.90;;;14.30;58.50;;;;;;5011590;28;20045;-79
2022/03/02 10:56:53;;;;;;;1999.90;999.90;;;14.50;58.40;;;;;;4986508;28;20029;-81
2022/03/02 10:59:24;;;;;;;1999.90;999.90;;;14.60;58.30;;;;;;4984794;28;20537;-83
2022/03/02 11:01:51;;;;;;;1999.90;999.90;;;14.70;58.20;;;;;;5006493;28;20060;-82
2022/03/02 11:04:18;;;;;;;1999.90;999.90;;;14.80;58.20;;;;;;5011008;28;20486;-80
2022/03/02 11:06:44;;;;;;;1999.90;999.90;;;14.90;58.10;;;;;;5009963;28;20386;-85
2022/03/02 11:09:10;;;;;;;1999.90;999.90;;;14.90;58.10;;;;;;5063143;28;20014;-83
2022/03/02 11:11:37;;;;;;;1999.90;999.90;;;15.00;58.10;;;;;;5031529;28;20390;-85
2022/03/02 11:14:04;;;;;;;1999.90;999.90;;;15.10;58.10;;;;;;5029106;28;20030;-86
2022/03/02 11:16:30;;;;;;;1999.90;999.90;;;15.10;58.10;;;;;;5010004;28;20042;-84
2022/03/02 11:18:56;;;;;;;1999.90;999.90;;;15.20;58.10;;;;;;4993684;28;20054;-83
2022/03/02 11:21:32;;;;;;;1999.90;999.90;;;15.20;58.20;;;;;;5028400;28;20014;-84
2022/03/02 11:24:01;;;;;;;1999.90;999.90;;;15.20;58.20;;;;;;5064858;28;20053;-84
2022/03/02 11:26:34;;;;;;;1999.90;999.90;;;15.20;58.30;;;;;;4994832;28;20422;-80
2022/03/02 11:29:15;;;;;;;1999.90;999.90;;;15.20;58.40;;;;;;5014695;28;20042;-80
2022/03/02 11:31:50;;;;;;;1999.90;999.90;;;15.20;58.30;;;;;;5029002;28;20038;-80
2022/03/02 11:34:27;;;;;;;1999.90;999.90;;;15.30;58.40;;;;;;5060179;28;20030;-82
2022/03/02 11:36:59;;;;;;;1999.90;999.90;;;15.30;58.30;;;;;;5025803;28;20034;-82
2022/03/02 11:39:26;;;;;;;1999.90;999.90;;;15.40;58.30;;;;;;5023001;28;20033;-81
2022/03/02 11:41:54;;;;;;;1999.90;999.90;;;15.40;58.20;;;;;;5013217;28;20046;-81
2022/03/02 11:44:27;;;;;;;1999.90;999.90;;;15.50;58.30;;;;;;5029246;28;20034;-78
2022/03/02 11:46:54;;;;;;;1999.90;999.90;;;15.40;58.30;;;;;;5014525;28;20049;-78
2022/03/02 11:49:20;;;;;;;1999.90;999.90;;;15.30;58.40;;;;;;5014926;28;20046;-78
2022/03/02 11:52:04;;;;;;;1999.90;999.90;;;15.30;58.50;;;;;;5012127;28;20036;-80
2022/03/02 11:54:47;;;;;;;1999.90;999.90;;;15.30;58.60;;;;;;5008009;28;20038;-79
2022/03/02 11:57:15;;;;;;;1999.90;999.90;;;15.20;58.60;;;;;;5013372;28;20033;-79
2022/03/02 11:59:42;;;;;;;1999.90;999.90;;;15.30;58.60;;;;;;5026638;28;20406;-79
2022/03/02 12:02:19;;;;;;;1999.90;999.90;;;15.30;58.60;;;;;;5013174;28;20065;-79